sensor_id;sensor_type;location;lat;lon;timestamp;temperature;humidity
22787;DHT22;63134;52.020;4.714;2022-09-12T00:01:45;16.80;92.60
22787;DHT22;63134;52.020;4.714;2022-09-12T00:04:31;16.80;92.70
22787;DHT22;63134;52.020;4.714;2022-09-12T00:07:18;16.70;92.70
22787;DHT22;63134;52.020;4.714;2022-09-12T00:10:04;16.70;92.90
22787;DHT22;63134;52.020;4.714;2022-09-12T00:12:50;16.70;92.80
22787;DHT22;63134;52.020;4.714;2022-09-12T00:15:41;16.60;92.80
22787;DHT22;63134;52.020;4.714;2022-09-12T00:18:27;16.60;93.00
22787;DHT22;63134;52.020;4.714;2022-09-12T00:21:13;16.60;93.20
22787;DHT22;63134;52.020;4.714;2022-09-12T00:23:59;16.60;93.20
22787;DHT22;63134;52.020;4.714;2022-09-12T00:26:48;16.60;93.20
22787;DHT22;63134;52.020;4.714;2022-09-12T00:29:33;16.60;93.40
22787;DHT22;63134;52.020;4.714;2022-09-12T00:32:19;16.50;93.30
22787;DHT22;63134;52.020;4.714;2022-09-12T00:35:05;16.50;93.50
22787;DHT22;63134;52.020;4.714;2022-09-12T00:37:51;16.50;93.70
22787;DHT22;63134;52.020;4.714;2022-09-12T00:40:36;16.50;93.90
22787;DHT22;63134;52.020;4.714;2022-09-12T00:43:38;16.50;93.70
22787;DHT22;63134;52.020;4.714;2022-09-12T00:46:33;16.50;93.60
22787;DHT22;63134;52.020;4.714;2022-09-12T00:49:28;16.40;93.70
22787;DHT22;63134;52.020;4.714;2022-09-12T00:52:31;16.40;93.80
22787;DHT22;63134;52.020;4.714;2022-09-12T00:55:22;16.40;93.60
22787;DHT22;63134;52.020;4.714;2022-09-12T01:01:03;16.40;94.00
22787;DHT22;63134;52.020;4.714;2022-09-12T01:03:50;16.40;94.10
22787;DHT22;63134;52.020;4.714;2022-09-12T01:06:40;16.40;94.10
22787;DHT22;63134;52.020;4.714;2022-09-12T01:09:26;16.40;94.20
22787;DHT22;63134;52.020;4.714;2022-09-12T01:12:13;16.40;94.30
22787;DHT22;63134;52.020;4.714;2022-09-12T01:14:59;16.40;94.30
22787;DHT22;63134;52.020;4.714;2022-09-12T01:30:46;16.40;94.20
22787;DHT22;63134;52.020;4.714;2022-09-12T01:39:34;16.30;94.10
22787;DHT22;63134;52.020;4.714;2022-09-12T01:42:33;16.20;94.20
22787;DHT22;63134;52.020;4.714;2022-09-12T01:45:35;16.20;94.20
22787;DHT22;63134;52.020;4.714;2022-09-12T01:48:26;16.20;94.40
22787;DHT22;63134;52.020;4.714;2022-09-12T01:51:25;16.20;94.50
22787;DHT22;63134;52.020;4.714;2022-09-12T01:54:25;16.20;94.50
22787;DHT22;63134;52.020;4.714;2022-09-12T01:57:22;16.20;94.60
22787;DHT22;63134;52.020;4.714;2022-09-12T02:00:10;16.20;94.90
22787;DHT22;63134;52.020;4.714;2022-09-12T02:03:19;16.30;94.80
22787;DHT22;63134;52.020;4.714;2022-09-12T02:06:15;16.20;94.40
22787;DHT22;63134;52.020;4.714;2022-09-12T02:09:08;16.10;94.30
22787;DHT22;63134;52.020;4.714;2022-09-12T02:11:58;16.10;94.20
22787;DHT22;63134;52.020;4.714;2022-09-12T02:14:52;16.10;94.40
22787;DHT22;63134;52.020;4.714;2022-09-12T02:17:42;16.00;94.40
22787;DHT22;63134;52.020;4.714;2022-09-12T02:20:36;16.00;94.50
22787;DHT22;63134;52.020;4.714;2022-09-12T02:23:33;16.00;94.50
22787;DHT22;63134;52.020;4.714;2022-09-12T02:26:28;16.00;94.50
22787;DHT22;63134;52.020;4.714;2022-09-12T02:29:16;16.00;94.70
22787;DHT22;63134;52.020;4.714;2022-09-12T02:32:25;16.00;95.00
22787;DHT22;63134;52.020;4.714;2022-09-12T02:41:08;16.00;95.50
22787;DHT22;63134;52.020;4.714;2022-09-12T02:43:53;16.00;95.60
22787;DHT22;63134;52.020;4.714;2022-09-12T02:46:43;16.10;95.60
22787;DHT22;63134;52.020;4.714;2022-09-12T02:49:29;16.10;95.60
22787;DHT22;63134;52.020;4.714;2022-09-12T02:52:15;16.10;95.40
22787;DHT22;63134;52.020;4.714;2022-09-12T02:55:02;16.10;95.30
22787;DHT22;63134;52.020;4.714;2022-09-12T02:57:49;16.10;95.30
22787;DHT22;63134;52.020;4.714;2022-09-12T03:10:15;16.10;95.30
22787;DHT22;63134;52.020;4.714;2022-09-12T03:13:19;16.10;95.30
22787;DHT22;63134;52.020;4.714;2022-09-12T03:16:23;16.10;95.40
22787;DHT22;63134;52.020;4.714;2022-09-12T03:19:38;16.10;95.50
22787;DHT22;63134;52.020;4.714;2022-09-12T03:22:56;16.10;95.70
22787;DHT22;63134;52.020;4.714;2022-09-12T03:25:48;16.10;95.60
22787;DHT22;63134;52.020;4.714;2022-09-12T03:28:38;16.20;95.70
22787;DHT22;63134;52.020;4.714;2022-09-12T03:31:25;16.20;95.70
22787;DHT22;63134;52.020;4.714;2022-09-12T03:34:10;16.20;95.80
22787;DHT22;63134;52.020;4.714;2022-09-12T03:36:57;16.20;95.80
22787;DHT22;63134;52.020;4.714;2022-09-12T03:39:42;16.20;95.70
22787;DHT22;63134;52.020;4.714;2022-09-12T03:42:28;16.30;95.80
22787;DHT22;63134;52.020;4.714;2022-09-12T03:45:13;16.30;95.80
22787;DHT22;63134;52.020;4.714;2022-09-12T03:48:00;16.30;95.60
22787;DHT22;63134;52.020;4.714;2022-09-12T03:50:46;16.30;95.60
22787;DHT22;63134;52.020;4.714;2022-09-12T03:53:31;16.30;95.40
22787;DHT22;63134;52.020;4.714;2022-09-12T03:56:17;16.30;95.40
22787;DHT22;63134;52.020;4.714;2022-09-12T03:59:05;16.30;95.40
22787;DHT22;63134;52.020;4.714;2022-09-12T04:01:51;16.30;95.50
22787;DHT22;63134;52.020;4.714;2022-09-12T04:04:36;16.30;95.40
22787;DHT22;63134;52.020;4.714;2022-09-12T04:07:22;16.30;95.30
22787;DHT22;63134;52.020;4.714;2022-09-12T04:10:11;16.30;95.30
22787;DHT22;63134;52.020;4.714;2022-09-12T04:12:57;16.20;95.20
22787;DHT22;63134;52.020;4.714;2022-09-12T04:15:42;16.20;95.30
22787;DHT22;63134;52.020;4.714;2022-09-12T04:18:27;16.20;95.60
22787;DHT22;63134;52.020;4.714;2022-09-12T04:21:16;16.20;95.10
22787;DHT22;63134;52.020;4.714;2022-09-12T04:24:01;16.20;95.10
22787;DHT22;63134;52.020;4.714;2022-09-12T04:26:47;16.10;95.10
22787;DHT22;63134;52.020;4.714;2022-09-12T04:29:32;16.10;95.00
22787;DHT22;63134;52.020;4.714;2022-09-12T04:32:18;16.10;95.00
22787;DHT22;63134;52.020;4.714;2022-09-12T04:35:04;16.10;95.10
22787;DHT22;63134;52.020;4.714;2022-09-12T04:37:49;16.00;95.00
22787;DHT22;63134;52.020;4.714;2022-09-12T04:40:35;16.00;94.90
22787;DHT22;63134;52.020;4.714;2022-09-12T04:43:20;15.90;94.90
22787;DHT22;63134;52.020;4.714;2022-09-12T04:46:10;15.90;94.90
22787;DHT22;63134;52.020;4.714;2022-09-12T04:48:55;15.90;94.90
22787;DHT22;63134;52.020;4.714;2022-09-12T04:51:41;15.90;94.80
22787;DHT22;63134;52.020;4.714;2022-09-12T04:54:31;15.80;95.00
22787;DHT22;63134;52.020;4.714;2022-09-12T04:57:18;15.80;95.00
22787;DHT22;63134;52.020;4.714;2022-09-12T05:00:04;15.80;95.00
22787;DHT22;63134;52.020;4.714;2022-09-12T05:02:51;15.70;95.00
22787;DHT22;63134;52.020;4.714;2022-09-12T05:05:36;15.70;95.20
22787;DHT22;63134;52.020;4.714;2022-09-12T05:08:22;15.70;95.30
22787;DHT22;63134;52.020;4.714;2022-09-12T05:11:13;15.70;95.50
22787;DHT22;63134;52.020;4.714;2022-09-12T05:13:59;15.70;95.30
22787;DHT22;63134;52.020;4.714;2022-09-12T05:16:44;15.60;95.30
22787;DHT22;63134;52.020;4.714;2022-09-12T05:19:34;15.60;95.30
22787;DHT22;63134;52.020;4.714;2022-09-12T05:22:19;15.60;95.80
22787;DHT22;63134;52.020;4.714;2022-09-12T05:25:05;15.60;95.80
22787;DHT22;63134;52.020;4.714;2022-09-12T05:27:53;15.70;95.80
22787;DHT22;63134;52.020;4.714;2022-09-12T05:30:39;15.60;95.60
22787;DHT22;63134;52.020;4.714;2022-09-12T05:33:25;15.50;95.70
22787;DHT22;63134;52.020;4.714;2022-09-12T05:36:19;15.60;95.60
22787;DHT22;63134;52.020;4.714;2022-09-12T05:39:05;15.50;96.00
22787;DHT22;63134;52.020;4.714;2022-09-12T05:41:51;15.50;95.70
22787;DHT22;63134;52.020;4.714;2022-09-12T05:44:36;15.50;95.90
22787;DHT22;63134;52.020;4.714;2022-09-12T05:47:24;15.50;96.00
22787;DHT22;63134;52.020;4.714;2022-09-12T05:50:10;15.60;96.30
22787;DHT22;63134;52.020;4.714;2022-09-12T05:52:56;15.60;96.20
22787;DHT22;63134;52.020;4.714;2022-09-12T05:55:42;15.50;96.20
22787;DHT22;63134;52.020;4.714;2022-09-12T05:58:27;15.60;96.30
22787;DHT22;63134;52.020;4.714;2022-09-12T06:01:15;15.60;96.40
22787;DHT22;63134;52.020;4.714;2022-09-12T06:04:02;15.60;96.60
22787;DHT22;63134;52.020;4.714;2022-09-12T06:06:52;15.60;96.40
22787;DHT22;63134;52.020;4.714;2022-09-12T06:09:38;15.60;96.40
22787;DHT22;63134;52.020;4.714;2022-09-12T06:12:24;15.60;96.50
22787;DHT22;63134;52.020;4.714;2022-09-12T06:15:13;15.70;96.60
22787;DHT22;63134;52.020;4.714;2022-09-12T06:18:00;15.70;96.80
22787;DHT22;63134;52.020;4.714;2022-09-12T06:20:46;15.80;96.80
22787;DHT22;63134;52.020;4.714;2022-09-12T06:23:35;15.80;96.90
22787;DHT22;63134;52.020;4.714;2022-09-12T06:26:21;15.90;96.90
22787;DHT22;63134;52.020;4.714;2022-09-12T06:29:10;15.90;97.10
22787;DHT22;63134;52.020;4.714;2022-09-12T06:31:55;16.00;97.20
22787;DHT22;63134;52.020;4.714;2022-09-12T06:34:41;16.00;97.20
22787;DHT22;63134;52.020;4.714;2022-09-12T06:37:27;16.10;97.30
22787;DHT22;63134;52.020;4.714;2022-09-12T06:40:12;16.20;97.40
22787;DHT22;63134;52.020;4.714;2022-09-12T06:42:58;16.20;97.40
22787;DHT22;63134;52.020;4.714;2022-09-12T06:45:50;16.30;97.50
22787;DHT22;63134;52.020;4.714;2022-09-12T06:48:35;16.40;97.50
22787;DHT22;63134;52.020;4.714;2022-09-12T06:51:26;16.50;97.70
22787;DHT22;63134;52.020;4.714;2022-09-12T06:54:14;16.50;97.70
22787;DHT22;63134;52.020;4.714;2022-09-12T06:57:00;16.60;97.70
22787;DHT22;63134;52.020;4.714;2022-09-12T06:59:45;16.70;97.70
22787;DHT22;63134;52.020;4.714;2022-09-12T07:02:31;16.80;97.50
22787;DHT22;63134;52.020;4.714;2022-09-12T07:05:16;16.90;97.60
22787;DHT22;63134;52.020;4.714;2022-09-12T07:08:02;16.90;97.60
22787;DHT22;63134;52.020;4.714;2022-09-12T07:10:48;17.00;97.80
22787;DHT22;63134;52.020;4.714;2022-09-12T07:13:33;17.10;97.80
22787;DHT22;63134;52.020;4.714;2022-09-12T07:16:19;17.20;97.40
22787;DHT22;63134;52.020;4.714;2022-09-12T07:19:06;17.20;97.20
22787;DHT22;63134;52.020;4.714;2022-09-12T07:21:52;17.30;97.20
22787;DHT22;63134;52.020;4.714;2022-09-12T07:24:42;17.30;97.20
22787;DHT22;63134;52.020;4.714;2022-09-12T07:27:30;17.40;97.00
22787;DHT22;63134;52.020;4.714;2022-09-12T07:30:15;17.50;97.20
22787;DHT22;63134;52.020;4.714;2022-09-12T07:33:01;17.60;97.10
22787;DHT22;63134;52.020;4.714;2022-09-12T07:35:47;17.70;97.20
22787;DHT22;63134;52.020;4.714;2022-09-12T07:38:38;17.80;97.40
22787;DHT22;63134;52.020;4.714;2022-09-12T07:41:26;17.90;96.50
22787;DHT22;63134;52.020;4.714;2022-09-12T07:44:11;17.90;95.90
22787;DHT22;63134;52.020;4.714;2022-09-12T07:46:57;18.00;95.70
22787;DHT22;63134;52.020;4.714;2022-09-12T07:49:42;18.10;95.60
22787;DHT22;63134;52.020;4.714;2022-09-12T07:52:28;18.10;95.20
22787;DHT22;63134;52.020;4.714;2022-09-12T07:55:14;18.30;95.60
22787;DHT22;63134;52.020;4.714;2022-09-12T07:57:59;18.30;94.80
22787;DHT22;63134;52.020;4.714;2022-09-12T08:00:48;18.40;94.80
22787;DHT22;63134;52.020;4.714;2022-09-12T08:03:36;18.50;94.50
22787;DHT22;63134;52.020;4.714;2022-09-12T08:06:23;18.50;94.20
22787;DHT22;63134;52.020;4.714;2022-09-12T08:09:09;18.60;93.90
22787;DHT22;63134;52.020;4.714;2022-09-12T08:11:56;18.60;93.40
22787;DHT22;63134;52.020;4.714;2022-09-12T08:14:44;18.70;93.30
22787;DHT22;63134;52.020;4.714;2022-09-12T08:17:30;18.70;93.20
22787;DHT22;63134;52.020;4.714;2022-09-12T08:20:16;18.80;93.40
22787;DHT22;63134;52.020;4.714;2022-09-12T08:23:02;19.00;93.10
22787;DHT22;63134;52.020;4.714;2022-09-12T08:25:47;19.10;92.80
22787;DHT22;63134;52.020;4.714;2022-09-12T08:28:35;19.20;92.40
22787;DHT22;63134;52.020;4.714;2022-09-12T08:31:22;19.20;91.90
22787;DHT22;63134;52.020;4.714;2022-09-12T08:34:08;19.30;91.30
22787;DHT22;63134;52.020;4.714;2022-09-12T08:36:53;19.40;91.30
22787;DHT22;63134;52.020;4.714;2022-09-12T08:39:39;19.50;91.40
22787;DHT22;63134;52.020;4.714;2022-09-12T08:45:53;19.70;90.60
22787;DHT22;63134;52.020;4.714;2022-09-12T08:48:48;19.80;90.40
22787;DHT22;63134;52.020;4.714;2022-09-12T08:51:37;19.90;89.90
22787;DHT22;63134;52.020;4.714;2022-09-12T08:54:26;20.00;90.00
22787;DHT22;63134;52.020;4.714;2022-09-12T08:57:14;20.10;89.30
22787;DHT22;63134;52.020;4.714;2022-09-12T09:00:02;20.20;87.60
22787;DHT22;63134;52.020;4.714;2022-09-12T09:03:12;20.20;87.30
22787;DHT22;63134;52.020;4.714;2022-09-12T09:12:25;20.40;85.20
22787;DHT22;63134;52.020;4.714;2022-09-12T09:15:59;20.50;85.00
22787;DHT22;63134;52.020;4.714;2022-09-12T09:18:43;20.60;84.00
22787;DHT22;63134;52.020;4.714;2022-09-12T09:21:43;20.70;83.40
22787;DHT22;63134;52.020;4.714;2022-09-12T09:24:38;20.80;83.30
22787;DHT22;63134;52.020;4.714;2022-09-12T09:27:40;20.90;82.40
22787;DHT22;63134;52.020;4.714;2022-09-12T09:30:27;21.10;81.60
22787;DHT22;63134;52.020;4.714;2022-09-12T09:33:37;21.10;78.70
22787;DHT22;63134;52.020;4.714;2022-09-12T09:36:38;21.20;79.00
22787;DHT22;63134;52.020;4.714;2022-09-12T09:39:39;21.30;77.80
22787;DHT22;63134;52.020;4.714;2022-09-12T09:42:44;21.50;77.70
22787;DHT22;63134;52.020;4.714;2022-09-12T09:45:34;21.60;76.40
22787;DHT22;63134;52.020;4.714;2022-09-12T09:48:33;21.60;75.20
22787;DHT22;63134;52.020;4.714;2022-09-12T09:51:26;21.70;75.30
22787;DHT22;63134;52.020;4.714;2022-09-12T09:54:23;21.70;74.40
22787;DHT22;63134;52.020;4.714;2022-09-12T10:00:40;22.00;74.10
22787;DHT22;63134;52.020;4.714;2022-09-12T10:03:31;22.00;73.60
22787;DHT22;63134;52.020;4.714;2022-09-12T10:06:31;22.10;72.30
22787;DHT22;63134;52.020;4.714;2022-09-12T10:09:25;22.10;71.00
22787;DHT22;63134;52.020;4.714;2022-09-12T10:12:26;22.10;71.20
22787;DHT22;63134;52.020;4.714;2022-09-12T10:15:19;22.20;70.60
22787;DHT22;63134;52.020;4.714;2022-09-12T10:18:05;22.30;70.00
22787;DHT22;63134;52.020;4.714;2022-09-12T10:20:51;22.40;69.50
22787;DHT22;63134;52.020;4.714;2022-09-12T10:23:37;22.60;68.50
22787;DHT22;63134;52.020;4.714;2022-09-12T10:26:25;22.60;67.10
22787;DHT22;63134;52.020;4.714;2022-09-12T10:29:18;22.60;66.80
22787;DHT22;63134;52.020;4.714;2022-09-12T10:32:07;22.80;67.00
22787;DHT22;63134;52.020;4.714;2022-09-12T10:34:57;22.90;65.90
22787;DHT22;63134;52.020;4.714;2022-09-12T10:37:53;23.10;66.60
22787;DHT22;63134;52.020;4.714;2022-09-12T10:40:42;23.40;65.10
22787;DHT22;63134;52.020;4.714;2022-09-12T10:43:29;23.50;65.20
22787;DHT22;63134;52.020;4.714;2022-09-12T10:52:20;23.80;61.40
22787;DHT22;63134;52.020;4.714;2022-09-12T10:55:14;23.90;60.00
22787;DHT22;63134;52.020;4.714;2022-09-12T10:58:12;24.10;59.70
22787;DHT22;63134;52.020;4.714;2022-09-12T11:01:09;24.30;60.10
22787;DHT22;63134;52.020;4.714;2022-09-12T11:07:37;24.50;56.90
22787;DHT22;63134;52.020;4.714;2022-09-12T11:19:13;25.50;56.40
22787;DHT22;63134;52.020;4.714;2022-09-12T11:22:13;26.00;55.40
22787;DHT22;63134;52.020;4.714;2022-09-12T11:40:49;28.80;50.10
22787;DHT22;63134;52.020;4.714;2022-09-12T11:46:45;30.00;45.60
22787;DHT22;63134;52.020;4.714;2022-09-12T11:49:40;30.60;43.90
22787;DHT22;63134;52.020;4.714;2022-09-12T11:52:32;30.90;41.70
22787;DHT22;63134;52.020;4.714;2022-09-12T11:55:24;31.10;41.10
22787;DHT22;63134;52.020;4.714;2022-09-12T11:58:11;31.60;41.50
22787;DHT22;63134;52.020;4.714;2022-09-12T12:01:30;31.90;39.90
22787;DHT22;63134;52.020;4.714;2022-09-12T12:04:28;32.30;39.00
22787;DHT22;63134;52.020;4.714;2022-09-12T12:07:16;32.80;38.50
22787;DHT22;63134;52.020;4.714;2022-09-12T12:10:03;33.10;37.80
22787;DHT22;63134;52.020;4.714;2022-09-12T12:12:50;33.20;36.70
22787;DHT22;63134;52.020;4.714;2022-09-12T12:15:37;33.60;36.40
22787;DHT22;63134;52.020;4.714;2022-09-12T12:18:25;33.70;34.50
22787;DHT22;63134;52.020;4.714;2022-09-12T12:24:23;33.80;35.20
22787;DHT22;63134;52.020;4.714;2022-09-12T12:27:45;34.00;33.80
22787;DHT22;63134;52.020;4.714;2022-09-12T12:36:33;34.10;34.30
22787;DHT22;63134;52.020;4.714;2022-09-12T12:48:16;35.50;30.70
22787;DHT22;63134;52.020;4.714;2022-09-12T12:57:56;34.70;31.70
22787;DHT22;63134;52.020;4.714;2022-09-12T13:00:38;35.20;31.90
22787;DHT22;63134;52.020;4.714;2022-09-12T13:03:29;35.60;31.70
22787;DHT22;63134;52.020;4.714;2022-09-12T13:06:37;36.70;31.00
22787;DHT22;63134;52.020;4.714;2022-09-12T13:09:31;37.30;29.40
22787;DHT22;63134;52.020;4.714;2022-09-12T13:12:24;38.50;28.90
22787;DHT22;63134;52.020;4.714;2022-09-12T13:18:26;40.50;25.50
22787;DHT22;63134;52.020;4.714;2022-09-12T13:21:18;40.20;25.40
22787;DHT22;63134;52.020;4.714;2022-09-12T13:24:14;40.20;25.30
22787;DHT22;63134;52.020;4.714;2022-09-12T13:27:00;40.30;25.20
22787;DHT22;63134;52.020;4.714;2022-09-12T13:29:46;40.50;25.10
22787;DHT22;63134;52.020;4.714;2022-09-12T13:32:32;40.50;25.20
22787;DHT22;63134;52.020;4.714;2022-09-12T13:45:19;42.90;23.80
22787;DHT22;63134;52.020;4.714;2022-09-12T13:48:14;42.80;22.90
22787;DHT22;63134;52.020;4.714;2022-09-12T13:51:01;42.30;23.20
22787;DHT22;63134;52.020;4.714;2022-09-12T13:53:48;42.20;22.90
22787;DHT22;63134;52.020;4.714;2022-09-12T13:56:46;41.80;23.50
22787;DHT22;63134;52.020;4.714;2022-09-12T13:59:39;41.80;23.70
22787;DHT22;63134;52.020;4.714;2022-09-12T14:02:26;41.90;23.80
22787;DHT22;63134;52.020;4.714;2022-09-12T14:05:19;41.00;23.70
22787;DHT22;63134;52.020;4.714;2022-09-12T14:08:06;41.10;24.10
22787;DHT22;63134;52.020;4.714;2022-09-12T14:10:53;41.10;23.60
22787;DHT22;63134;52.020;4.714;2022-09-12T14:13:39;41.00;23.70
22787;DHT22;63134;52.020;4.714;2022-09-12T14:16:24;41.10;23.60
22787;DHT22;63134;52.020;4.714;2022-09-12T14:19:13;40.80;23.60
22787;DHT22;63134;52.020;4.714;2022-09-12T14:22:00;41.00;23.90
22787;DHT22;63134;52.020;4.714;2022-09-12T14:24:47;41.50;23.10
22787;DHT22;63134;52.020;4.714;2022-09-12T14:27:46;41.30;23.00
22787;DHT22;63134;52.020;4.714;2022-09-12T14:30:35;40.70;23.30
22787;DHT22;63134;52.020;4.714;2022-09-12T14:33:21;40.00;24.10
22787;DHT22;63134;52.020;4.714;2022-09-12T14:36:32;39.30;24.50
22787;DHT22;63134;52.020;4.714;2022-09-12T14:39:23;38.50;25.40
22787;DHT22;63134;52.020;4.714;2022-09-12T14:42:13;38.30;25.60
22787;DHT22;63134;52.020;4.714;2022-09-12T14:45:02;38.00;26.00
22787;DHT22;63134;52.020;4.714;2022-09-12T14:47:49;38.20;26.40
22787;DHT22;63134;52.020;4.714;2022-09-12T14:50:35;38.40;25.90
22787;DHT22;63134;52.020;4.714;2022-09-12T14:53:25;38.00;26.00
22787;DHT22;63134;52.020;4.714;2022-09-12T14:56:15;37.60;26.70
22787;DHT22;63134;52.020;4.714;2022-09-12T15:02:21;38.00;26.40
22787;DHT22;63134;52.020;4.714;2022-09-12T15:10:40;37.20;26.40
22787;DHT22;63134;52.020;4.714;2022-09-12T15:13:27;36.90;26.90
22787;DHT22;63134;52.020;4.714;2022-09-12T15:16:12;37.20;27.10
22787;DHT22;63134;52.020;4.714;2022-09-12T15:18:58;37.50;26.70
22787;DHT22;63134;52.020;4.714;2022-09-12T15:21:43;37.80;26.40
22787;DHT22;63134;52.020;4.714;2022-09-12T15:24:29;38.20;25.70
22787;DHT22;63134;52.020;4.714;2022-09-12T15:27:14;38.30;25.70
22787;DHT22;63134;52.020;4.714;2022-09-12T15:30:00;38.60;25.30
22787;DHT22;63134;52.020;4.714;2022-09-12T15:32:45;39.10;24.90
22787;DHT22;63134;52.020;4.714;2022-09-12T15:35:31;38.20;25.40
22787;DHT22;63134;52.020;4.714;2022-09-12T15:38:17;37.80;26.40
22787;DHT22;63134;52.020;4.714;2022-09-12T15:41:18;37.50;25.90
22787;DHT22;63134;52.020;4.714;2022-09-12T15:44:06;36.10;27.50
22787;DHT22;63134;52.020;4.714;2022-09-12T15:46:52;35.10;28.60
22787;DHT22;63134;52.020;4.714;2022-09-12T15:49:39;34.10;29.60
22787;DHT22;63134;52.020;4.714;2022-09-12T15:52:24;33.20;31.00
22787;DHT22;63134;52.020;4.714;2022-09-12T15:55:19;32.70;32.30
22787;DHT22;63134;52.020;4.714;2022-09-12T15:58:05;32.40;32.50
22787;DHT22;63134;52.020;4.714;2022-09-12T16:00:51;32.00;33.50
22787;DHT22;63134;52.020;4.714;2022-09-12T16:03:37;31.50;34.40
22787;DHT22;63134;52.020;4.714;2022-09-12T16:06:23;31.20;34.80
22787;DHT22;63134;52.020;4.714;2022-09-12T16:09:09;30.70;35.70
22787;DHT22;63134;52.020;4.714;2022-09-12T16:12:00;30.20;37.00
22787;DHT22;63134;52.020;4.714;2022-09-12T16:14:46;29.70;38.10
22787;DHT22;63134;52.020;4.714;2022-09-12T16:17:31;29.50;38.70
22787;DHT22;63134;52.020;4.714;2022-09-12T16:20:17;29.30;39.20
22787;DHT22;63134;52.020;4.714;2022-09-12T16:23:03;29.00;39.50
22787;DHT22;63134;52.020;4.714;2022-09-12T16:25:57;28.70;40.10
22787;DHT22;63134;52.020;4.714;2022-09-12T16:28:42;28.40;40.80
22787;DHT22;63134;52.020;4.714;2022-09-12T16:31:30;28.30;41.40
22787;DHT22;63134;52.020;4.714;2022-09-12T16:34:18;28.10;41.80
22787;DHT22;63134;52.020;4.714;2022-09-12T16:37:03;28.00;42.60
22787;DHT22;63134;52.020;4.714;2022-09-12T16:39:49;27.80;43.10
22787;DHT22;63134;52.020;4.714;2022-09-12T16:42:36;27.70;43.40
22787;DHT22;63134;52.020;4.714;2022-09-12T16:45:27;27.70;43.90
22787;DHT22;63134;52.020;4.714;2022-09-12T16:48:13;27.50;44.20
22787;DHT22;63134;52.020;4.714;2022-09-12T16:51:00;27.50;44.60
22787;DHT22;63134;52.020;4.714;2022-09-12T16:53:48;27.30;44.80
22787;DHT22;63134;52.020;4.714;2022-09-12T16:56:33;27.10;45.40
22787;DHT22;63134;52.020;4.714;2022-09-12T17:01:37;26.80;45.70
22787;DHT22;63134;52.020;4.714;2022-09-12T17:07:52;26.50;46.60
22787;DHT22;63134;52.020;4.714;2022-09-12T17:10:39;26.50;47.20
22787;DHT22;63134;52.020;4.714;2022-09-12T17:13:25;27.10;47.00
22787;DHT22;63134;52.020;4.714;2022-09-12T17:16:33;27.40;46.10
22787;DHT22;63134;52.020;4.714;2022-09-12T17:19:24;27.40;46.10
22787;DHT22;63134;52.020;4.714;2022-09-12T17:22:10;27.40;45.80
22787;DHT22;63134;52.020;4.714;2022-09-12T17:24:56;27.20;46.00
22787;DHT22;63134;52.020;4.714;2022-09-12T17:27:41;27.00;46.20
22787;DHT22;63134;52.020;4.714;2022-09-12T17:30:27;27.00;46.50
22787;DHT22;63134;52.020;4.714;2022-09-12T17:33:12;26.80;46.60
22787;DHT22;63134;52.020;4.714;2022-09-12T17:36:03;26.60;47.10
22787;DHT22;63134;52.020;4.714;2022-09-12T17:38:49;26.30;48.00
22787;DHT22;63134;52.020;4.714;2022-09-12T17:41:35;26.10;47.80
22787;DHT22;63134;52.020;4.714;2022-09-12T17:44:22;25.90;48.30
22787;DHT22;63134;52.020;4.714;2022-09-12T17:47:11;25.70;48.90
22787;DHT22;63134;52.020;4.714;2022-09-12T17:49:56;25.50;49.50
22787;DHT22;63134;52.020;4.714;2022-09-12T17:53:02;25.20;50.10
22787;DHT22;63134;52.020;4.714;2022-09-12T17:55:47;25.10;50.80
22787;DHT22;63134;52.020;4.714;2022-09-12T17:58:41;24.90;51.20
22787;DHT22;63134;52.020;4.714;2022-09-12T18:01:27;24.70;51.60
22787;DHT22;63134;52.020;4.714;2022-09-12T18:04:32;24.50;51.90
22787;DHT22;63134;52.020;4.714;2022-09-12T18:07:21;24.40;52.30
22787;DHT22;63134;52.020;4.714;2022-09-12T18:10:06;24.30;52.60
22787;DHT22;63134;52.020;4.714;2022-09-12T18:12:52;24.10;52.90
22787;DHT22;63134;52.020;4.714;2022-09-12T18:15:37;24.00;53.20
22787;DHT22;63134;52.020;4.714;2022-09-12T18:18:23;23.90;53.50
22787;DHT22;63134;52.020;4.714;2022-09-12T18:21:10;23.80;54.40
22787;DHT22;63134;52.020;4.714;2022-09-12T18:23:56;23.70;54.10
22787;DHT22;63134;52.020;4.714;2022-09-12T18:26:44;23.50;54.50
22787;DHT22;63134;52.020;4.714;2022-09-12T18:29:30;23.50;54.90
22787;DHT22;63134;52.020;4.714;2022-09-12T18:32:17;23.30;55.30
22787;DHT22;63134;52.020;4.714;2022-09-12T18:35:02;23.30;55.50
22787;DHT22;63134;52.020;4.714;2022-09-12T18:37:48;23.20;55.60
22787;DHT22;63134;52.020;4.714;2022-09-12T18:40:33;23.10;55.90
22787;DHT22;63134;52.020;4.714;2022-09-12T18:43:19;23.10;56.20
22787;DHT22;63134;52.020;4.714;2022-09-12T18:46:06;23.00;56.50
22787;DHT22;63134;52.020;4.714;2022-09-12T18:48:51;22.90;57.00
22787;DHT22;63134;52.020;4.714;2022-09-12T18:51:39;22.80;57.30
22787;DHT22;63134;52.020;4.714;2022-09-12T18:54:26;22.70;57.70
22787;DHT22;63134;52.020;4.714;2022-09-12T18:57:11;22.60;58.20
22787;DHT22;63134;52.020;4.714;2022-09-12T18:59:57;22.60;58.70
22787;DHT22;63134;52.020;4.714;2022-09-12T19:02:44;22.60;59.10
22787;DHT22;63134;52.020;4.714;2022-09-12T19:05:29;22.50;59.20
22787;DHT22;63134;52.020;4.714;2022-09-12T19:08:15;22.60;59.40
22787;DHT22;63134;52.020;4.714;2022-09-12T19:11:00;22.60;59.70
22787;DHT22;63134;52.020;4.714;2022-09-12T19:13:48;22.60;59.80
22787;DHT22;63134;52.020;4.714;2022-09-12T19:16:34;22.60;60.00
22787;DHT22;63134;52.020;4.714;2022-09-12T19:19:20;22.50;60.00
22787;DHT22;63134;52.020;4.714;2022-09-12T19:22:05;22.60;60.20
22787;DHT22;63134;52.020;4.714;2022-09-12T19:24:50;22.50;60.30
22787;DHT22;63134;52.020;4.714;2022-09-12T19:27:38;22.50;60.40
22787;DHT22;63134;52.020;4.714;2022-09-12T19:30:24;22.50;60.50
22787;DHT22;63134;52.020;4.714;2022-09-12T19:33:09;22.50;60.50
22787;DHT22;63134;52.020;4.714;2022-09-12T19:35:55;22.50;60.80
22787;DHT22;63134;52.020;4.714;2022-09-12T19:38:40;22.50;60.90
22787;DHT22;63134;52.020;4.714;2022-09-12T19:41:26;22.40;61.00
22787;DHT22;63134;52.020;4.714;2022-09-12T19:44:14;22.40;61.00
22787;DHT22;63134;52.020;4.714;2022-09-12T19:46:59;22.40;61.00
22787;DHT22;63134;52.020;4.714;2022-09-12T19:49:45;22.30;61.00
22787;DHT22;63134;52.020;4.714;2022-09-12T19:52:30;22.30;61.30
22787;DHT22;63134;52.020;4.714;2022-09-12T19:55:16;22.20;61.30
22787;DHT22;63134;52.020;4.714;2022-09-12T19:58:02;22.20;61.60
22787;DHT22;63134;52.020;4.714;2022-09-12T20:00:50;22.10;62.00
22787;DHT22;63134;52.020;4.714;2022-09-12T20:03:36;22.10;62.50
22787;DHT22;63134;52.020;4.714;2022-09-12T20:06:21;22.00;63.00
22787;DHT22;63134;52.020;4.714;2022-09-12T20:09:06;21.90;63.40